createdAt,value
2019-06-15T00:01:49.515Z,18.20
2019-06-15T00:04:21.368Z,18.20
2019-06-15T00:06:52.119Z,18.10
2019-06-15T00:09:22.246Z,18.10
2019-06-15T00:11:52.415Z,18.00
2019-06-15T00:14:24.271Z,18.00
2019-06-15T00:16:54.350Z,18.00
2019-06-15T00:19:24.900Z,18.00
2019-06-15T00:21:55.122Z,18.00
2019-06-15T00:24:34.899Z,18.00
2019-06-15T00:26:56.989Z,18.10
2019-06-15T00:29:46.174Z,18.10
2019-06-15T00:32:16.453Z,18.10
2019-06-15T00:34:48.327Z,18.00
2019-06-15T00:37:18.430Z,18.10
2019-06-15T00:39:48.505Z,18.00
2019-06-15T00:42:18.663Z,18.10
2019-06-15T00:44:49.504Z,18.10
2019-06-15T00:47:20.873Z,18.10
2019-06-15T00:49:51.311Z,18.10
2019-06-15T00:52:21.481Z,18.10
2019-06-15T00:54:51.499Z,18.10
2019-06-15T00:57:21.677Z,18.10
2019-06-15T00:59:51.809Z,18.00
2019-06-15T01:02:21.891Z,17.90
2019-06-15T01:04:51.953Z,17.70
2019-06-15T01:07:22.088Z,17.50
2019-06-15T01:09:52.151Z,17.40
2019-06-15T01:12:22.396Z,17.20
2019-06-15T01:14:52.445Z,17.10
2019-06-15T01:17:22.606Z,17.00
2019-06-15T01:19:52.725Z,16.90
2019-06-15T01:22:22.945Z,16.80
2019-06-15T01:25:05.224Z,16.80
2019-06-15T01:27:26.034Z,16.70
2019-06-15T01:29:56.058Z,16.70
2019-06-15T01:32:26.163Z,16.70
2019-06-15T01:34:56.388Z,16.70
2019-06-15T01:37:26.688Z,16.60
2019-06-15T01:39:56.790Z,16.50
2019-06-15T01:42:26.876Z,16.50
2019-06-15T01:44:59.301Z,16.50
2019-06-15T01:47:29.453Z,16.50
2019-06-15T01:49:59.578Z,16.50
2019-06-15T01:52:29.782Z,16.40
2019-06-15T01:54:59.900Z,16.40
2019-06-15T01:57:30.027Z,16.30
2019-06-15T02:00:00.228Z,16.30
2019-06-15T02:02:30.415Z,16.20
2019-06-15T02:05:01.522Z,16.10
2019-06-15T02:07:33.470Z,16.10
2019-06-15T02:10:03.636Z,16.00
2019-06-15T02:12:33.830Z,16.00
2019-06-15T02:15:03.915Z,15.90
2019-06-15T02:17:34.066Z,15.90
2019-06-15T02:20:04.663Z,15.90
2019-06-15T02:22:34.724Z,15.90
2019-06-15T02:25:05.875Z,15.80
2019-06-15T02:27:35.966Z,15.80
2019-06-15T02:30:07.073Z,15.70
2019-06-15T02:32:37.189Z,15.70
2019-06-15T02:35:07.929Z,15.70
2019-06-15T02:37:38.040Z,15.60
2019-06-15T02:40:09.805Z,15.60
2019-06-15T02:42:39.867Z,15.60
2019-06-15T02:45:10.087Z,15.60
2019-06-15T02:47:40.172Z,15.60
2019-06-15T02:50:10.403Z,15.50
2019-06-15T02:52:40.636Z,15.40
2019-06-15T02:55:12.624Z,15.40
2019-06-15T02:57:42.783Z,15.30
2019-06-15T03:00:13.966Z,15.30
2019-06-15T03:02:46.622Z,15.20
2019-06-15T03:05:16.042Z,15.20
2019-06-15T03:07:46.137Z,15.10
2019-06-15T03:10:16.548Z,15.00
2019-06-15T03:12:47.418Z,15.00
2019-06-15T03:15:18.517Z,14.90
2019-06-15T03:17:49.257Z,14.80
2019-06-15T03:20:20.698Z,14.80
2019-06-15T03:22:51.075Z,14.70
2019-06-15T03:25:21.907Z,14.70
2019-06-15T03:27:52.091Z,14.60
2019-06-15T03:30:25.561Z,14.60
2019-06-15T03:32:55.696Z,14.60
2019-06-15T03:35:26.245Z,14.50
2019-06-15T03:37:56.577Z,14.50
2019-06-15T03:40:26.677Z,14.50
2019-06-15T03:42:56.754Z,14.50
2019-06-15T03:45:26.796Z,14.60
2019-06-15T03:47:56.894Z,14.60
2019-06-15T03:50:27.015Z,14.50
2019-06-15T03:52:57.086Z,14.40
2019-06-15T03:55:27.127Z,14.30
2019-06-15T03:57:57.308Z,14.20
2019-06-15T04:00:38.840Z,14.20
2019-06-15T04:03:08.992Z,14.10
2019-06-15T04:05:39.014Z,14.10
2019-06-15T04:08:09.273Z,14.00
2019-06-15T04:10:39.342Z,14.00
2019-06-15T04:13:09.423Z,14.00
2019-06-15T04:15:39.559Z,13.90
2019-06-15T04:18:09.736Z,13.90
2019-06-15T04:20:39.774Z,13.90
2019-06-15T04:23:09.866Z,13.80
2019-06-15T04:25:44.226Z,13.80
2019-06-15T04:28:13.874Z,13.80
2019-06-15T04:30:44.012Z,13.80
2019-06-15T04:33:14.882Z,13.80
2019-06-15T04:35:44.996Z,13.70
2019-06-15T04:38:18.775Z,13.70
2019-06-15T04:40:52.126Z,13.80
2019-06-15T04:43:23.889Z,13.80
2019-06-15T04:45:54.046Z,13.80
2019-06-15T04:48:24.126Z,13.90
2019-06-15T04:50:54.319Z,14.00
2019-06-15T04:53:24.414Z,14.00
2019-06-15T04:55:54.517Z,14.00
2019-06-15T04:58:24.677Z,14.10
2019-06-15T05:00:56.590Z,14.10
2019-06-15T05:03:27.069Z,14.10
2019-06-15T05:05:57.219Z,14.10
2019-06-15T05:08:27.464Z,14.10
2019-06-15T05:11:00.017Z,14.10
2019-06-15T05:13:34.030Z,14.10
2019-06-15T05:16:05.920Z,14.10
2019-06-15T05:18:40.793Z,14.20
2019-06-15T05:21:12.404Z,14.20
2019-06-15T05:23:42.510Z,14.20
2019-06-15T05:26:14.318Z,14.30
2019-06-15T05:28:47.517Z,14.40
2019-06-15T05:31:17.656Z,14.40
2019-06-15T05:33:47.838Z,14.50
2019-06-15T05:36:17.910Z,14.50
2019-06-15T05:38:48.108Z,14.50
2019-06-15T05:41:19.873Z,14.60
2019-06-15T05:43:50.104Z,14.60
2019-06-15T05:46:20.144Z,14.70
2019-06-15T05:48:50.246Z,14.80
2019-06-15T05:51:24.538Z,14.80
2019-06-15T05:53:54.642Z,14.80
2019-06-15T05:56:24.745Z,14.90
2019-06-15T05:58:54.897Z,14.90
2019-06-15T06:01:25.166Z,14.90
2019-06-15T06:03:55.289Z,14.90
2019-06-15T06:06:25.400Z,14.90
2019-06-15T06:08:55.585Z,15.00
2019-06-15T06:11:25.719Z,15.00
2019-06-15T06:13:55.905Z,15.20
2019-06-15T06:16:26.164Z,15.40
2019-06-15T06:18:56.341Z,15.50
2019-06-15T06:21:26.522Z,15.70
2019-06-15T06:23:56.687Z,15.90
2019-06-15T06:26:26.801Z,16.00
2019-06-15T06:28:57.649Z,16.10
2019-06-15T06:31:27.853Z,16.20
2019-06-15T06:33:58.410Z,16.20
2019-06-15T06:36:28.557Z,16.30
2019-06-15T06:38:58.747Z,16.50
2019-06-15T06:41:28.848Z,16.60
2019-06-15T06:43:59.049Z,16.90
2019-06-15T06:46:29.156Z,17.10
2019-06-15T06:49:01.718Z,17.40
2019-06-15T06:51:31.868Z,17.50
2019-06-15T06:54:04.443Z,17.60
2019-06-15T06:56:34.519Z,17.90
2019-06-15T06:59:04.881Z,18.10
2019-06-15T07:01:35.319Z,18.30
2019-06-15T07:04:05.536Z,18.40
2019-06-15T07:06:39.291Z,18.40
2019-06-15T07:09:09.649Z,18.40
2019-06-15T07:11:42.006Z,18.40
2019-06-15T07:14:12.403Z,18.40
2019-06-15T07:16:42.556Z,18.50
2019-06-15T07:19:12.750Z,18.50
2019-06-15T07:21:45.923Z,18.40
2019-06-15T07:24:16.218Z,18.30
2019-06-15T07:26:46.306Z,18.30
2019-06-15T07:29:18.571Z,18.20
2019-06-15T07:31:50.448Z,18.20
2019-06-15T07:34:21.625Z,18.30
2019-06-15T07:36:51.763Z,18.50
2019-06-15T07:39:21.958Z,18.70
2019-06-15T07:41:52.242Z,18.70
2019-06-15T07:44:22.386Z,18.60
2019-06-15T07:46:53.749Z,18.60
2019-06-15T07:49:26.245Z,18.70
2019-06-15T07:51:56.498Z,18.90
2019-06-15T07:54:26.675Z,19.00
2019-06-15T07:56:58.412Z,19.20
2019-06-15T07:59:28.677Z,19.40
2019-06-15T08:02:01.947Z,19.90
2019-06-15T08:04:32.106Z,20.20
2019-06-15T08:07:02.312Z,20.80
2019-06-15T08:09:34.173Z,21.10
2019-06-15T08:12:07.515Z,21.10
2019-06-15T08:14:37.732Z,20.80
2019-06-15T08:17:07.927Z,20.60
2019-06-15T08:19:38.101Z,20.50
2019-06-15T08:22:08.532Z,20.60
2019-06-15T08:24:42.298Z,20.50
2019-06-15T08:27:12.383Z,20.50
2019-06-15T08:29:42.616Z,20.70
2019-06-15T08:32:14.784Z,20.90
2019-06-15T08:34:44.988Z,21.00
2019-06-15T08:37:15.127Z,21.10
2019-06-15T08:39:45.254Z,21.10
2019-06-15T08:42:17.037Z,21.10
2019-06-15T08:44:47.286Z,21.00
2019-06-15T08:47:17.342Z,21.00
2019-06-15T08:49:49.276Z,20.80
2019-06-15T08:52:19.455Z,20.60
2019-06-15T08:54:49.768Z,20.50
2019-06-15T08:57:26.498Z,20.60
2019-06-15T08:59:57.869Z,20.40
2019-06-15T09:02:28.173Z,20.10
2019-06-15T09:04:58.394Z,19.70
2019-06-15T09:07:28.627Z,19.50
2019-06-15T09:09:58.734Z,19.40
2019-06-15T09:12:28.891Z,19.30
2019-06-15T09:15:00.457Z,19.50
2019-06-15T09:17:30.946Z,19.70
2019-06-15T09:20:01.369Z,20.10
2019-06-15T09:22:31.479Z,20.60
2019-06-15T09:25:01.794Z,21.20
2019-06-15T09:27:31.993Z,21.90
2019-06-15T09:30:02.397Z,22.50
2019-06-15T09:32:32.490Z,22.80
2019-06-15T09:35:05.827Z,23.00
2019-06-15T09:37:36.129Z,23.30
2019-06-15T09:40:06.975Z,23.40
2019-06-15T09:42:37.218Z,23.30
2019-06-15T09:45:07.548Z,22.90
2019-06-15T09:47:37.754Z,22.60
2019-06-15T09:50:08.164Z,22.30
2019-06-15T09:52:38.332Z,22.00
2019-06-15T09:55:09.004Z,21.60
2019-06-15T09:57:39.245Z,21.30
2019-06-15T10:00:09.934Z,21.00
2019-06-15T10:02:41.768Z,20.70
2019-06-15T10:05:12.009Z,20.50
2019-06-15T10:07:42.237Z,20.40
2019-06-15T10:10:12.932Z,20.20
2019-06-15T10:12:43.520Z,19.90
2019-06-15T10:15:17.590Z,19.60
2019-06-15T10:17:47.744Z,19.20
2019-06-15T10:20:18.094Z,19.10
2019-06-15T10:22:48.734Z,19.50
2019-06-15T10:25:19.117Z,20.00
2019-06-15T10:27:49.363Z,20.20
2019-06-15T10:30:19.533Z,20.20
2019-06-15T10:32:51.325Z,20.50
2019-06-15T10:35:21.495Z,21.10
2019-06-15T10:37:53.964Z,21.70
2019-06-15T10:40:24.262Z,22.10
2019-06-15T10:42:56.627Z,22.30
2019-06-15T10:45:26.945Z,22.40
2019-06-15T10:47:59.511Z,22.50
2019-06-15T10:50:29.603Z,22.70
2019-06-15T10:52:59.706Z,23.20
2019-06-15T10:55:30.334Z,23.50
2019-06-15T10:58:01.405Z,23.50
2019-06-15T11:00:31.507Z,23.50
2019-06-15T11:03:01.677Z,23.70
2019-06-15T11:05:33.401Z,23.70
2019-06-15T11:08:03.560Z,23.30
2019-06-15T11:10:53.583Z,23.20
2019-06-15T11:13:25.037Z,23.50
2019-06-15T11:15:56.029Z,23.40
2019-06-15T11:18:27.071Z,22.80
2019-06-15T11:20:58.968Z,22.50
2019-06-15T11:23:29.239Z,22.40
2019-06-15T11:26:01.958Z,22.40
2019-06-15T11:28:31.716Z,22.70
2019-06-15T11:31:01.809Z,23.10
2019-06-15T11:33:31.863Z,23.30
2019-06-15T11:36:02.440Z,23.00
2019-06-15T11:38:32.766Z,23.00
2019-06-15T11:41:03.336Z,22.70
2019-06-15T11:43:34.921Z,22.20
2019-06-15T11:46:05.301Z,21.70
2019-06-15T11:48:35.498Z,21.70
2019-06-15T11:51:05.632Z,21.90
2019-06-15T11:53:35.906Z,22.20
2019-06-15T11:56:06.246Z,22.50
2019-06-15T11:58:36.600Z,22.90
2019-06-15T12:01:06.847Z,23.20
2019-06-15T12:03:37.045Z,23.30
2019-06-15T12:06:10.099Z,23.30
2019-06-15T12:08:40.232Z,23.10
2019-06-15T12:11:10.317Z,22.80
2019-06-15T12:13:40.622Z,22.60
2019-06-15T12:16:11.990Z,22.60
2019-06-15T12:18:42.328Z,22.70
2019-06-15T12:21:12.584Z,22.60
2019-06-15T12:23:44.386Z,22.40
2019-06-15T12:26:16.381Z,22.40
2019-06-15T12:28:46.635Z,22.50
2019-06-15T12:31:20.851Z,22.50
2019-06-15T12:33:50.883Z,22.50
2019-06-15T12:36:21.722Z,22.30
2019-06-15T12:38:51.798Z,22.10
2019-06-15T12:41:21.900Z,21.90
2019-06-15T12:43:53.712Z,21.70
2019-06-15T12:46:23.940Z,21.50
2019-06-15T12:48:54.066Z,21.30
2019-06-15T12:51:24.208Z,21.50
2019-06-15T12:53:54.332Z,21.60
2019-06-15T12:56:25.060Z,21.50
2019-06-15T12:58:55.252Z,21.50
2019-06-15T13:01:25.728Z,21.60
2019-06-15T13:03:57.481Z,21.60
2019-06-15T13:06:27.724Z,21.70
2019-06-15T13:08:57.751Z,21.70
2019-06-15T13:11:28.123Z,21.80
2019-06-15T13:13:58.339Z,22.00
2019-06-15T13:16:38.987Z,22.10
2019-06-15T13:19:03.448Z,22.20
2019-06-15T13:21:33.587Z,22.20
2019-06-15T13:24:04.154Z,22.20
2019-06-15T13:26:34.289Z,22.30
2019-06-15T13:29:06.645Z,22.50
2019-06-15T13:31:37.340Z,22.70
2019-06-15T13:34:07.486Z,22.80
2019-06-15T13:36:37.672Z,22.80
2019-06-15T13:39:07.879Z,22.80
2019-06-15T13:41:38.062Z,22.90
2019-06-15T13:44:08.536Z,23.10
2019-06-15T13:46:38.618Z,23.20
2019-06-15T13:49:09.915Z,23.30
2019-06-15T13:51:39.972Z,23.40
2019-06-15T13:54:14.057Z,23.50
2019-06-15T13:56:49.288Z,23.60
2019-06-15T13:59:19.332Z,23.80
2019-06-15T14:01:49.452Z,23.80
2019-06-15T14:04:19.497Z,23.70
2019-06-15T14:06:49.660Z,23.90
2019-06-15T14:09:20.454Z,23.90
2019-06-15T14:11:52.875Z,23.80
2019-06-15T14:14:23.313Z,23.80
2019-06-15T14:16:53.816Z,23.70
2019-06-15T14:19:23.925Z,23.70
2019-06-15T14:21:54.062Z,23.70
2019-06-15T14:24:24.095Z,24.00
2019-06-15T14:26:54.194Z,24.10
2019-06-15T14:29:24.385Z,24.00
2019-06-15T14:31:55.296Z,24.20
2019-06-15T14:34:25.501Z,24.50
2019-06-15T14:36:55.756Z,24.60
2019-06-15T14:39:25.798Z,24.60
2019-06-15T14:41:56.433Z,24.70
2019-06-15T14:44:26.556Z,24.70
2019-06-15T14:46:57.701Z,24.60
2019-06-15T14:49:28.451Z,24.60
2019-06-15T14:51:58.994Z,24.40
2019-06-15T14:54:29.357Z,24.10
2019-06-15T14:56:59.525Z,23.80
2019-06-15T14:59:29.807Z,23.30
2019-06-15T15:02:10.029Z,22.80
2019-06-15T15:04:33.699Z,22.70
2019-06-15T15:07:03.833Z,22.70
2019-06-15T15:09:33.906Z,22.80
2019-06-15T15:12:04.141Z,22.90
2019-06-15T15:14:43.196Z,23.50
2019-06-15T15:17:13.340Z,24.90
2019-06-15T15:19:43.534Z,26.60
2019-06-15T15:22:15.989Z,27.20
2019-06-15T15:24:45.935Z,27.30
2019-06-15T15:27:20.420Z,28.10
2019-06-15T15:29:51.597Z,28.60
2019-06-15T15:32:31.977Z,29.70
2019-06-15T15:35:02.110Z,30.70
2019-06-15T15:37:33.889Z,31.50
2019-06-15T15:40:07.295Z,32.10
2019-06-15T15:42:37.840Z,31.30
2019-06-15T15:45:08.025Z,30.30
2019-06-15T15:47:38.276Z,29.40
2019-06-15T15:50:08.430Z,28.80
2019-06-15T15:52:38.559Z,28.30
2019-06-15T15:55:08.707Z,27.80
2019-06-15T15:57:39.473Z,27.30
2019-06-15T16:00:16.450Z,26.60
2019-06-15T16:02:51.875Z,26.20
2019-06-15T16:05:18.656Z,25.80
2019-06-15T16:07:48.880Z,25.60
2019-06-15T16:10:19.075Z,25.30
2019-06-15T16:12:49.357Z,25.30
2019-06-15T16:15:19.616Z,26.60
2019-06-15T16:17:49.869Z,28.10
2019-06-15T16:20:20.094Z,29.60
2019-06-15T16:22:50.374Z,31.00
2019-06-15T16:25:20.591Z,32.50
2019-06-15T16:27:51.249Z,33.50
2019-06-15T16:30:56.165Z,33.30
2019-06-15T16:33:04.039Z,32.90
2019-06-15T16:35:36.135Z,32.00
2019-06-15T16:38:06.831Z,31.50
2019-06-15T16:40:38.716Z,30.50
2019-06-15T16:43:11.040Z,29.50
2019-06-15T16:45:41.668Z,28.90
2019-06-15T16:48:13.536Z,28.30
2019-06-15T16:50:47.346Z,28.20
2019-06-15T16:53:17.506Z,28.10
2019-06-15T16:55:47.692Z,28.60
2019-06-15T16:58:17.861Z,29.10
2019-06-15T17:00:51.650Z,28.80
2019-06-15T17:03:26.189Z,28.30
2019-06-15T17:05:57.382Z,28.00
2019-06-15T17:08:27.118Z,27.70
2019-06-15T17:10:58.648Z,26.80
2019-06-15T17:13:31.622Z,25.80
2019-06-15T17:16:01.693Z,25.90
2019-06-15T17:18:31.903Z,26.50
2019-06-15T17:21:01.983Z,26.90
2019-06-15T17:23:33.534Z,27.10
2019-06-15T17:26:06.297Z,27.30
2019-06-15T17:28:36.946Z,28.00
2019-06-15T17:31:07.361Z,28.10
2019-06-15T17:33:38.580Z,27.80
2019-06-15T17:36:08.977Z,27.90
2019-06-15T17:38:39.108Z,27.80
2019-06-15T17:41:09.224Z,27.40
2019-06-15T17:43:39.583Z,27.00
2019-06-15T17:46:09.714Z,27.40
2019-06-15T17:48:39.968Z,28.00
2019-06-15T17:51:10.088Z,28.40
2019-06-15T17:53:40.168Z,28.20
2019-06-15T17:56:10.278Z,28.30
2019-06-15T17:58:40.562Z,28.80
2019-06-15T18:01:11.301Z,28.70
2019-06-15T18:03:50.431Z,28.90
2019-06-15T18:06:13.597Z,29.20
2019-06-15T18:08:46.112Z,28.60
2019-06-15T18:11:16.614Z,27.30
2019-06-15T18:13:47.453Z,26.10
2019-06-15T18:16:20.379Z,24.80
2019-06-15T18:18:50.557Z,23.70
2019-06-15T18:21:20.800Z,22.90
2019-06-15T18:23:53.326Z,22.40
2019-06-15T18:26:23.686Z,22.10
2019-06-15T18:28:53.881Z,21.90
2019-06-15T18:31:24.110Z,21.60
2019-06-15T18:34:08.317Z,21.30
2019-06-15T18:36:29.109Z,21.10
2019-06-15T18:38:59.301Z,20.90
2019-06-15T18:41:29.639Z,20.70
2019-06-15T18:43:59.783Z,20.50
2019-06-15T18:46:29.954Z,20.40
2019-06-15T18:49:00.541Z,20.20
2019-06-15T18:51:31.794Z,20.10
2019-06-15T18:54:02.139Z,20.00
2019-06-15T18:56:32.245Z,19.70
2019-06-15T18:59:02.714Z,19.60
2019-06-15T19:01:32.914Z,19.60
2019-06-15T19:04:20.800Z,19.40
2019-06-15T19:06:39.581Z,19.30
2019-06-15T19:09:10.124Z,19.20
2019-06-15T19:11:40.173Z,19.10
2019-06-15T19:14:10.355Z,19.00
2019-06-15T19:16:40.423Z,18.90
2019-06-15T19:19:10.526Z,18.80
2019-06-15T19:21:40.691Z,18.80
2019-06-15T19:24:13.293Z,18.70
2019-06-15T19:26:45.918Z,18.60
2019-06-15T19:29:17.494Z,18.50
2019-06-15T19:31:47.704Z,18.40
2019-06-15T19:34:18.854Z,18.30
2019-06-15T19:36:49.651Z,18.30
2019-06-15T19:39:20.275Z,18.20
2019-06-15T19:41:50.535Z,18.20
2019-06-15T19:44:26.766Z,18.20
2019-06-15T19:47:00.227Z,18.10
2019-06-15T19:49:32.454Z,18.00
2019-06-15T19:52:02.938Z,17.90
2019-06-15T19:54:36.427Z,17.80
2019-06-15T19:57:06.928Z,17.70
2019-06-15T19:59:37.814Z,17.70
2019-06-15T20:02:10.836Z,17.60
2019-06-15T20:04:40.184Z,17.60
2019-06-15T20:07:10.734Z,17.50
2019-06-15T20:09:41.399Z,17.40
2019-06-15T20:12:20.893Z,17.30
2019-06-15T20:14:46.018Z,17.20
2019-06-15T20:17:17.527Z,17.20
2019-06-15T20:19:48.064Z,17.10
2019-06-15T20:22:18.531Z,17.00
2019-06-15T20:24:49.191Z,17.00
2019-06-15T20:27:19.408Z,16.90
2019-06-15T20:29:52.040Z,16.90
2019-06-15T20:32:22.698Z,16.80
2019-06-15T20:34:53.340Z,16.70
2019-06-15T20:37:26.309Z,16.60
2019-06-15T20:39:56.180Z,16.60
2019-06-15T20:42:27.043Z,16.50
2019-06-15T20:44:57.692Z,16.40
2019-06-15T20:47:27.998Z,16.40
2019-06-15T20:52:56.763Z,16.20
2019-06-15T20:55:27.130Z,16.10
2019-06-15T20:57:57.401Z,16.10
2019-06-15T21:00:27.637Z,16.00
2019-06-15T21:02:58.294Z,16.00
2019-06-15T21:05:37.733Z,16.00
2019-06-15T21:08:02.139Z,15.90
2019-06-15T21:10:32.628Z,15.90
2019-06-15T21:13:03.101Z,15.80
2019-06-15T21:15:36.903Z,15.80
2019-06-15T21:18:09.247Z,15.70
2019-06-15T21:20:39.534Z,15.70
2019-06-15T21:23:09.857Z,15.60
2019-06-15T21:25:42.648Z,15.60
2019-06-15T21:28:12.980Z,15.50
2019-06-15T21:30:43.235Z,15.50
2019-06-15T21:33:13.893Z,15.50
2019-06-15T21:35:51.625Z,15.50
2019-06-15T21:38:16.501Z,15.40
2019-06-15T21:40:47.651Z,15.40
2019-06-15T21:43:18.861Z,15.40
2019-06-15T21:45:49.230Z,15.40
2019-06-15T21:48:21.771Z,15.30
2019-06-15T21:50:56.151Z,15.30
2019-06-15T21:53:26.665Z,15.30
2019-06-15T21:55:57.005Z,15.30
2019-06-15T21:58:27.366Z,15.30
2019-06-15T22:01:17.655Z,15.20
2019-06-15T22:03:47.752Z,15.20
2019-06-15T22:06:18.695Z,15.20
2019-06-15T22:08:49.029Z,15.20
2019-06-15T22:11:22.391Z,15.20
2019-06-15T22:13:52.600Z,15.10
2019-06-15T22:16:22.719Z,15.20
2019-06-15T22:18:52.762Z,15.10
2019-06-15T22:21:27.854Z,15.10
2019-06-15T22:23:56.970Z,15.00
2019-06-15T22:26:27.052Z,15.00
2019-06-15T22:28:57.183Z,15.00
2019-06-15T22:31:27.818Z,15.00
2019-06-15T22:33:57.988Z,14.90
2019-06-15T22:36:28.675Z,14.90
2019-06-15T22:38:59.220Z,14.80
2019-06-15T22:41:30.620Z,14.70
2019-06-15T22:44:03.248Z,14.70
2019-06-15T22:46:33.458Z,14.60
2019-06-15T22:49:06.931Z,14.60
2019-06-15T22:51:38.538Z,14.60
2019-06-15T22:54:08.580Z,14.60
2019-06-15T22:56:39.678Z,14.60
2019-06-15T22:59:09.811Z,14.60
2019-06-15T23:01:39.894Z,14.60
2019-06-15T23:04:10.032Z,14.60
2019-06-15T23:06:42.898Z,14.50
2019-06-15T23:09:11.832Z,14.50
2019-06-15T23:11:42.004Z,14.60
2019-06-15T23:14:12.050Z,14.60
2019-06-15T23:16:47.576Z,14.60
2019-06-15T23:19:18.453Z,14.60
2019-06-15T23:21:48.559Z,14.60
2019-06-15T23:24:18.793Z,14.60
2019-06-15T23:26:49.150Z,14.60
2019-06-15T23:29:19.205Z,14.50
2019-06-15T23:31:49.363Z,14.50
2019-06-15T23:34:19.825Z,14.50
2019-06-15T23:36:56.828Z,14.50
2019-06-15T23:39:23.320Z,14.50
2019-06-15T23:41:53.415Z,14.50
2019-06-15T23:44:23.812Z,14.50
2019-06-15T23:46:53.876Z,14.40
2019-06-15T23:49:24.005Z,14.40
2019-06-15T23:51:54.234Z,14.40
2019-06-15T23:54:28.043Z,14.40
2019-06-15T23:56:58.157Z,14.40
2019-06-15T23:59:28.352Z,14.40
